Time;durP1;ratioP1;P1;durP2;ratioP2;P2;SDS_P1;SDS_P2;PMS_P1;PMS_P2;Temp;Humidity;BMP_temperature;BMP_pressure;BME280_temperature;BME280_humidity;BME280_pressure;Samples;Min_cycle;Max_cycle;Signal;HPM_P1;HPM_P2
2022/11/30 00:01:19;;;;;;;33.95;24.27;;;7.00;99.90;;;;;;5078850;28;20044;-52
2022/11/30 00:03:45;;;;;;;32.50;23.98;;;7.00;99.90;;;;;;5085667;28;20040;-50
2022/11/30 00:06:13;;;;;;;30.13;23.70;;;7.00;99.90;;;;;;5083773;28;20508;-53
2022/11/30 00:08:39;;;;;;;32.85;24.00;;;7.00;99.90;;;;;;5080348;28;20115;-52
2022/11/30 00:11:12;;;;;;;32.45;23.67;;;7.00;99.90;;;;;;5079393;28;20147;-51
2022/11/30 00:13:38;;;;;;;34.97;24.13;;;7.00;99.90;;;;;;5078337;28;20088;-55
2022/11/30 00:16:04;;;;;;;37.28;24.27;;;7.00;99.90;;;;;;5084272;28;20075;-54
2022/11/30 00:18:30;;;;;;;32.03;22.92;;;7.00;99.90;;;;;;5089025;28;20138;-52
2022/11/30 00:20:59;;;;;;;33.95;23.67;;;7.00;99.90;;;;;;5093318;28;20039;-54
2022/11/30 00:23:25;;;;;;;31.35;23.30;;;7.00;99.90;;;;;;5085108;28;20131;-53
2022/11/30 00:25:51;;;;;;;32.90;23.90;;;7.00;99.90;;;;;;5083957;28;20075;-54
2022/11/30 00:28:17;;;;;;;35.03;24.83;;;7.00;99.90;;;;;;5076454;28;20115;-53
2022/11/30 00:30:42;;;;;;;35.08;25.05;;;7.00;99.90;;;;;;5078037;28;20036;-54
2022/11/30 00:33:08;;;;;;;32.40;23.80;;;7.00;99.90;;;;;;5078283;28;20044;-54
2022/11/30 00:35:33;;;;;;;34.22;24.23;;;7.00;99.90;;;;;;5078697;28;20080;-53
2022/11/30 00:38:02;;;;;;;34.05;23.90;;;7.00;99.90;;;;;;5084248;28;20035;-51
2022/11/30 00:40:27;;;;;;;31.77;23.27;;;7.00;99.90;;;;;;5087269;28;20082;-54
2022/11/30 00:42:53;;;;;;;33.08;24.38;;;6.90;99.90;;;;;;5077435;28;20048;-53
2022/11/30 00:45:18;;;;;;;31.83;23.20;;;7.00;99.90;;;;;;5085765;28;20032;-54
2022/11/30 00:47:44;;;;;;;35.15;25.10;;;7.00;99.90;;;;;;5081354;28;20031;-51
2022/11/30 00:50:10;;;;;;;35.58;24.63;;;6.90;99.90;;;;;;5085180;28;20393;-51
2022/11/30 00:52:37;;;;;;;34.67;23.08;;;6.90;99.90;;;;;;5084631;28;20079;-52
2022/11/30 00:55:03;;;;;;;34.22;24.13;;;6.90;99.90;;;;;;5092205;28;20093;-54
2022/11/30 00:57:28;;;;;;;35.85;24.75;;;6.90;99.90;;;;;;5087609;28;20059;-54
2022/11/30 00:59:54;;;;;;;37.47;25.67;;;6.90;99.90;;;;;;5084316;28;20040;-53
2022/11/30 01:02:19;;;;;;;32.35;22.77;;;6.90;99.90;;;;;;5085618;28;20486;-54
2022/11/30 01:04:45;;;;;;;35.20;24.92;;;6.90;99.90;;;;;;5082877;28;20057;-55
2022/11/30 01:07:10;;;;;;;34.97;25.08;;;6.90;99.90;;;;;;5085860;28;20040;-51
2022/11/30 01:09:36;;;;;;;36.15;25.00;;;6.80;99.90;;;;;;5088538;28;20116;-50
2022/11/30 01:12:01;;;;;;;34.53;24.77;;;6.70;99.90;;;;;;5086368;28;20044;-54
2022/11/30 01:14:27;;;;;;;37.47;25.50;;;6.70;99.90;;;;;;5088077;28;20040;-51
2022/11/30 01:16:53;;;;;;;39.45;24.85;;;6.70;99.90;;;;;;5089487;28;20390;-54
2022/11/30 01:19:18;;;;;;;35.15;25.10;;;6.60;99.90;;;;;;5086477;28;20044;-51
2022/11/30 01:21:44;;;;;;;35.40;25.63;;;6.60;99.90;;;;;;5086479;28;20051;-55
2022/11/30 01:24:09;;;;;;;39.80;25.98;;;6.60;99.90;;;;;;5084803;28;20441;-54
2022/11/30 01:26:35;;;;;;;41.95;27.50;;;6.50;99.90;;;;;;5081488;28;20036;-54
2022/11/30 01:29:01;;;;;;;39.88;26.05;;;6.60;99.90;;;;;;5080853;28;20036;-54
2022/11/30 01:31:26;;;;;;;38.30;25.88;;;6.50;99.90;;;;;;5079118;28;20048;-54
2022/11/30 01:33:54;;;;;;;39.65;25.92;;;6.40;99.90;;;;;;5078404;28;20131;-52
2022/11/30 01:36:24;;;;;;;37.45;26.75;;;6.40;99.90;;;;;;5076366;28;20040;-55
2022/11/30 01:38:53;;;;;;;40.90;25.45;;;6.30;99.90;;;;;;5077794;28;20055;-50
2022/11/30 01:41:24;;;;;;;40.10;26.30;;;6.20;99.90;;;;;;5079764;28;20463;-54
2022/11/30 01:43:53;;;;;;;40.72;25.27;;;6.10;99.90;;;;;;5080504;28;20115;-52
2022/11/30 01:46:39;;;;;;;44.22;26.35;;;6.20;99.90;;;;;;5078924;28;20117;-51
2022/11/30 01:49:10;;;;;;;40.75;25.67;;;6.10;99.90;;;;;;5080079;28;20404;-54
2022/11/30 01:51:48;;;;;;;45.92;27.25;;;6.00;99.90;;;;;;5078760;28;20040;-51
2022/11/30 01:54:19;;;;;;;42.38;27.40;;;6.00;99.90;;;;;;5078554;28;20043;-50
2022/11/30 01:56:55;;;;;;;43.33;28.38;;;6.00;99.90;;;;;;5078325;28;20056;-53
2022/11/30 01:59:22;;;;;;;47.53;29.40;;;6.10;99.90;;;;;;5081512;28;20048;-54
2022/11/30 02:01:48;;;;;;;49.05;29.25;;;6.20;99.90;;;;;;5076299;28;20131;-53
2022/11/30 02:04:35;;;;;;;42.53;27.17;;;6.20;99.90;;;;;;5079188;28;20039;-55
2022/11/30 02:07:03;;;;;;;46.63;29.33;;;6.30;99.90;;;;;;5081088;28;20092;-55
2022/11/30 02:09:30;;;;;;;46.13;29.25;;;6.30;99.90;;;;;;5075347;28;20044;-51
2022/11/30 02:11:56;;;;;;;42.65;27.55;;;6.30;99.90;;;;;;5080205;28;20064;-50
2022/11/30 02:14:33;;;;;;;47.10;27.50;;;6.30;99.90;;;;;;5076848;28;20052;-53
2022/11/30 02:17:49;;;;;;;43.42;26.40;;;6.30;99.90;;;;;;5074897;28;20410;-52
2022/11/30 02:20:36;;;;;;;49.65;29.15;;;6.30;99.90;;;;;;5063198;28;20454;-54
2022/11/30 02:23:22;;;;;;;46.25;27.38;;;6.30;99.90;;;;;;5080346;28;20224;-54
2022/11/30 02:26:09;;;;;;;47.50;28.10;;;6.30;99.90;;;;;;5079932;28;20052;-55
2022/11/30 02:29:02;;;;;;;46.28;29.85;;;6.30;99.90;;;;;;5074782;28;20079;-54
2022/11/30 02:31:36;;;;;;;49.05;29.35;;;6.40;99.90;;;;;;5086950;28;20052;-55
2022/11/30 02:34:03;;;;;;;48.15;29.33;;;6.30;99.90;;;;;;5087523;28;20113;-51
2022/11/30 02:36:30;;;;;;;48.58;29.67;;;6.50;99.90;;;;;;5079412;28;20046;-53
2022/11/30 02:38:57;;;;;;;45.53;28.35;;;6.40;99.90;;;;;;5083277;28;20082;-52
2022/11/30 02:41:22;;;;;;;48.47;30.23;;;6.40;99.90;;;;;;5081359;28;20040;-51
2022/11/30 02:43:48;;;;;;;55.78;29.60;;;6.40;99.90;;;;;;5081762;28;20044;-52
2022/11/30 02:46:30;;;;;;;50.25;30.88;;;6.40;99.90;;;;;;5080659;28;20098;-52
2022/11/30 02:49:10;;;;;;;53.30;30.77;;;6.40;99.90;;;;;;5079551;28;20915;-50
2022/11/30 02:51:38;;;;;;;45.85;26.33;;;6.40;99.90;;;;;;5081221;28;20044;-52
2022/11/30 02:54:04;;;;;;;46.83;27.60;;;6.40;99.90;;;;;;5082895;28;20067;-50
2022/11/30 02:56:30;;;;;;;52.15;30.67;;;6.40;99.90;;;;;;5080446;28;20090;-52
2022/11/30 02:58:56;;;;;;;52.58;30.42;;;6.40;99.90;;;;;;5081682;28;20044;-54
2022/11/30 03:01:21;;;;;;;52.70;30.30;;;6.40;99.90;;;;;;5083143;28;20371;-54
2022/11/30 03:03:47;;;;;;;48.55;30.60;;;6.50;99.90;;;;;;5082690;28;20059;-53
2022/11/30 03:06:12;;;;;;;47.90;29.50;;;6.50;99.90;;;;;;5080508;28;20063;-53
2022/11/30 03:08:38;;;;;;;51.70;30.17;;;6.50;99.90;;;;;;5083814;28;20055;-50
2022/11/30 03:11:04;;;;;;;50.97;30.55;;;6.50;99.90;;;;;;5083603;28;20032;-54
2022/11/30 03:13:31;;;;;;;46.92;29.17;;;6.50;99.90;;;;;;5082349;28;20059;-52
2022/11/30 03:15:57;;;;;;;46.95;28.48;;;6.50;99.90;;;;;;5082653;28;20043;-54
2022/11/30 03:18:22;;;;;;;51.85;30.48;;;6.50;99.90;;;;;;5086927;28;20044;-54
2022/11/30 03:20:48;;;;;;;47.20;26.75;;;6.50;99.90;;;;;;5078122;28;20482;-54
2022/11/30 03:23:13;;;;;;;50.22;28.77;;;6.50;99.90;;;;;;5077918;28;20056;-53
2022/11/30 03:25:39;;;;;;;47.83;29.05;;;6.50;99.90;;;;;;5077693;28;20063;-54
2022/11/30 03:28:05;;;;;;;53.17;30.38;;;6.50;99.90;;;;;;5081005;28;20037;-51
2022/11/30 03:30:30;;;;;;;53.08;31.13;;;6.50;99.90;;;;;;5086373;28;20136;-52
2022/11/30 03:32:56;;;;;;;48.75;28.10;;;6.50;99.90;;;;;;5081196;28;20036;-51
2022/11/30 03:35:22;;;;;;;48.38;30.00;;;6.50;99.90;;;;;;5081080;28;21744;-55
2022/11/30 03:37:47;;;;;;;49.80;29.63;;;6.50;99.90;;;;;;5083467;28;20048;-53
2022/11/30 03:40:13;;;;;;;52.78;30.70;;;6.50;99.90;;;;;;5081541;28;20638;-53
2022/11/30 03:42:39;;;;;;;52.90;30.63;;;6.50;99.90;;;;;;5082410;28;20040;-51
2022/11/30 03:45:05;;;;;;;50.05;30.40;;;6.50;99.90;;;;;;5084149;28;20052;-54
2022/11/30 03:47:30;;;;;;;46.97;29.67;;;6.50;99.90;;;;;;5081813;28;20127;-51
2022/11/30 03:49:56;;;;;;;50.15;30.50;;;6.40;99.90;;;;;;5080052;28;20182;-54
2022/11/30 03:52:21;;;;;;;50.63;30.05;;;6.50;99.90;;;;;;5080498;28;20036;-53
2022/11/30 03:54:47;;;;;;;48.60;30.38;;;6.50;99.90;;;;;;5078491;28;20036;-52
2022/11/30 03:57:13;;;;;;;45.25;29.30;;;6.50;99.90;;;;;;5079351;28;20051;-52
2022/11/30 03:59:38;;;;;;;45.17;29.23;;;6.50;99.90;;;;;;5083651;28;20529;-51
2022/11/30 04:02:04;;;;;;;46.70;28.60;;;6.50;99.90;;;;;;5086540;28;20043;-53
2022/11/30 04:04:29;;;;;;;46.80;29.73;;;6.50;99.90;;;;;;5086055;28;20032;-52
2022/11/30 04:06:55;;;;;;;46.22;29.45;;;6.50;99.90;;;;;;5086443;28;20040;-54
2022/11/30 04:09:20;;;;;;;50.50;30.58;;;6.50;99.90;;;;;;5090573;28;20044;-50
2022/11/30 04:11:46;;;;;;;47.78;29.67;;;6.50;99.90;;;;;;5085735;28;20074;-53
2022/11/30 04:14:12;;;;;;;49.50;29.35;;;6.50;99.90;;;;;;5081300;28;20040;-52
2022/11/30 04:16:37;;;;;;;45.60;30.02;;;6.50;99.90;;;;;;5080814;28;20036;-53
2022/11/30 04:19:03;;;;;;;44.40;29.27;;;6.50;99.90;;;;;;5086406;28;20036;-49
2022/11/30 04:21:29;;;;;;;45.95;29.83;;;6.50;99.90;;;;;;5090916;28;20047;-54
2022/11/30 04:23:54;;;;;;;48.28;29.75;;;6.50;99.90;;;;;;5082527;28;20490;-54
2022/11/30 04:26:20;;;;;;;43.90;28.85;;;6.50;99.90;;;;;;5082028;28;20123;-54
2022/11/30 04:28:46;;;;;;;52.42;30.45;;;6.50;99.90;;;;;;5082507;28;20035;-55
2022/11/30 04:31:12;;;;;;;46.78;29.58;;;6.50;99.90;;;;;;5082238;28;20028;-51
2022/11/30 04:33:37;;;;;;;45.72;29.02;;;6.50;99.90;;;;;;5083314;28;20028;-53
2022/11/30 04:36:05;;;;;;;45.05;27.45;;;6.50;99.90;;;;;;5082852;28;20094;-50
2022/11/30 04:38:31;;;;;;;48.42;30.95;;;6.50;99.90;;;;;;5084421;28;20469;-53
2022/11/30 04:40:57;;;;;;;48.20;29.73;;;6.50;99.90;;;;;;5080451;28;20040;-54
2022/11/30 04:43:23;;;;;;;47.85;30.40;;;6.50;99.90;;;;;;5085942;28;20040;-55
2022/11/30 04:45:49;;;;;;;45.15;30.52;;;6.50;99.90;;;;;;5082113;28;20460;-54
2022/11/30 04:48:16;;;;;;;44.88;26.98;;;6.50;99.90;;;;;;5078000;28;20052;-52
2022/11/30 04:50:42;;;;;;;46.42;30.05;;;6.50;99.90;;;;;;5081647;28;20097;-52
2022/11/30 04:53:08;;;;;;;47.65;29.08;;;6.50;99.90;;;;;;5083256;28;20040;-55
2022/11/30 04:55:36;;;;;;;46.65;29.38;;;6.50;99.90;;;;;;5080832;28;20036;-52
2022/11/30 04:58:02;;;;;;;;;;;6.50;99.90;;;;;;5081280;28;20059;-52
2022/11/30 05:00:27;;;;;;;48.25;30.35;;;6.50;99.90;;;;;;5082170;28;19920;-52
2022/11/30 05:02:55;;;;;;;51.15;30.38;;;6.50;99.90;;;;;;5084094;28;20448;-53
2022/11/30 05:05:20;;;;;;;49.38;30.67;;;6.50;99.90;;;;;;5085167;28;20050;-54
2022/11/30 05:07:53;;;;;;;49.35;30.40;;;6.50;99.90;;;;;;5080261;28;20773;-53
2022/11/30 05:10:19;;;;;;;49.10;31.15;;;6.50;99.90;;;;;;5084050;28;20057;-51
2022/11/30 05:12:45;;;;;;;49.33;30.88;;;6.50;99.90;;;;;;5083106;28;20059;-51
2022/11/30 05:15:10;;;;;;;50.67;30.33;;;6.50;99.90;;;;;;5082976;28;20050;-55
2022/11/30 05:17:36;;;;;;;52.53;31.70;;;6.50;99.90;;;;;;5084108;28;20047;-55
2022/11/30 05:20:02;;;;;;;50.80;32.67;;;6.50;99.90;;;;;;5082705;28;20075;-55
2022/11/30 05:22:27;;;;;;;51.10;31.33;;;6.50;99.90;;;;;;5082059;28;20051;-54
2022/11/30 05:24:53;;;;;;;54.70;31.13;;;6.50;99.90;;;;;;5092478;28;20488;-52
2022/11/30 05:27:18;;;;;;;51.70;30.95;;;6.50;99.90;;;;;;5078921;28;20043;-53
2022/11/30 05:29:44;;;;;;;45.80;29.83;;;6.50;99.90;;;;;;5077183;28;20044;-54
2022/11/30 05:32:09;;;;;;;46.45;27.17;;;6.50;99.90;;;;;;5076975;28;20040;-49
2022/11/30 05:34:35;;;;;;;45.95;29.00;;;6.40;99.90;;;;;;5080348;28;20036;-51
2022/11/30 05:37:01;;;;;;;44.33;28.45;;;6.40;99.90;;;;;;5078925;28;20037;-51
2022/11/30 05:39:26;;;;;;;35.03;20.00;;;6.50;99.90;;;;;;5081999;28;20093;-51
2022/11/30 05:41:52;;;;;;;43.33;27.38;;;6.50;99.90;;;;;;5077699;28;20042;-50
2022/11/30 05:44:17;;;;;;;42.00;28.45;;;6.50;99.90;;;;;;5081855;28;20123;-51
2022/11/30 05:46:43;;;;;;;39.85;26.63;;;6.40;99.90;;;;;;5081543;28;20039;-53
2022/11/30 05:49:09;;;;;;;41.35;27.58;;;6.50;99.90;;;;;;5078490;28;20121;-51
2022/11/30 05:51:34;;;;;;;40.53;27.25;;;6.40;99.90;;;;;;5081337;28;20090;-50
2022/11/30 05:54:00;;;;;;;40.63;25.67;;;6.50;99.90;;;;;;5076268;28;20039;-50
2022/11/30 05:56:25;;;;;;;31.67;20.25;;;6.40;99.90;;;;;;5077759;28;20490;-50
2022/11/30 05:58:51;;;;;;;39.05;24.55;;;6.40;99.90;;;;;;5077104;28;20044;-51
2022/11/30 06:01:19;;;;;;;33.92;20.38;;;6.40;99.90;;;;;;5078941;28;20050;-53
2022/11/30 06:03:45;;;;;;;39.55;25.77;;;6.40;99.90;;;;;;5074755;28;20063;-51
2022/11/30 06:06:10;;;;;;;37.55;24.25;;;6.40;99.90;;;;;;5078417;28;20123;-55
2022/11/30 06:08:36;;;;;;;38.55;25.33;;;6.40;99.90;;;;;;5079843;28;20078;-50
2022/11/30 06:11:02;;;;;;;38.33;25.50;;;6.40;99.90;;;;;;5076963;28;20406;-51
2022/11/30 06:13:30;;;;;;;40.28;25.05;;;6.40;99.90;;;;;;5081580;28;20521;-53
2022/11/30 06:15:58;;;;;;;44.58;27.17;;;6.30;99.90;;;;;;5084371;28;20114;-51
2022/11/30 06:18:24;;;;;;;43.47;25.83;;;6.30;99.90;;;;;;5080766;28;20059;-53
2022/11/30 06:20:50;;;;;;;44.63;25.17;;;6.40;99.90;;;;;;5082944;28;20036;-53
2022/11/30 06:23:15;;;;;;;40.85;26.48;;;6.30;99.90;;;;;;5082507;28;20088;-54
2022/11/30 06:25:41;;;;;;;44.05;26.77;;;6.30;99.90;;;;;;5084762;28;20437;-54
2022/11/30 06:28:09;;;;;;;44.95;25.67;;;6.30;99.90;;;;;;5082104;28;20047;-53
2022/11/30 06:30:34;;;;;;;33.47;21.40;;;6.30;99.90;;;;;;5082994;28;20545;-54
2022/11/30 06:33:00;;;;;;;42.03;24.90;;;6.30;99.90;;;;;;5082341;28;20175;-52
2022/11/30 06:35:26;;;;;;;42.50;24.25;;;6.30;99.90;;;;;;5082539;28;20036;-50
2022/11/30 06:37:52;;;;;;;43.90;23.77;;;6.30;99.90;;;;;;5083044;28;20044;-51
2022/11/30 06:40:17;;;;;;;43.30;24.50;;;6.30;99.90;;;;;;5082184;28;20183;-53
2022/11/30 06:42:43;;;;;;;42.72;26.13;;;6.30;99.90;;;;;;5079414;28;20042;-54
2022/11/30 06:45:09;;;;;;;43.90;26.27;;;6.30;99.90;;;;;;5076660;28;20092;-54
2022/11/30 06:47:34;;;;;;;48.63;24.25;;;6.30;99.90;;;;;;5083423;28;20383;-49
2022/11/30 06:50:00;;;;;;;45.90;27.00;;;6.30;99.90;;;;;;5081363;28;20051;-50
2022/11/30 06:52:26;;;;;;;45.90;26.67;;;6.30;99.90;;;;;;5082294;28;20166;-51
2022/11/30 06:54:51;;;;;;;43.05;23.55;;;6.30;99.90;;;;;;5078396;28;20044;-50
2022/11/30 06:57:17;;;;;;;44.78;25.60;;;6.30;99.90;;;;;;5083884;28;20532;-53
2022/11/30 06:59:43;;;;;;;44.00;26.13;;;6.20;99.90;;;;;;5084606;28;20039;-53
2022/11/30 07:02:15;;;;;;;48.97;26.90;;;6.30;99.90;;;;;;5084468;28;20130;-54
2022/11/30 07:04:40;;;;;;;42.28;25.58;;;6.20;99.90;;;;;;5086851;28;20043;-50
2022/11/30 07:07:06;;;;;;;43.70;25.15;;;6.30;99.90;;;;;;5086458;28;20036;-49
2022/11/30 07:09:33;;;;;;;43.97;25.67;;;6.30;99.90;;;;;;5086437;28;20110;-54
2022/11/30 07:11:59;;;;;;;37.67;22.30;;;6.30;99.90;;;;;;5085655;28;20080;-50
2022/11/30 07:14:25;;;;;;;35.08;19.83;;;6.20;99.90;;;;;;5088217;28;20040;-52
2022/11/30 07:16:50;;;;;;;40.28;24.55;;;6.20;99.90;;;;;;5087815;28;20051;-49
2022/11/30 07:19:16;;;;;;;41.50;23.92;;;6.20;99.90;;;;;;5085778;28;20036;-50
2022/11/30 07:21:42;;;;;;;36.67;23.10;;;6.20;99.90;;;;;;5080748;28;20515;-54
2022/11/30 07:26:55;;;;;;;41.40;23.55;;;6.20;99.90;;;;;;5089877;28;20044;-54
2022/11/30 07:29:20;;;;;;;38.08;23.17;;;6.20;99.90;;;;;;5087692;28;20094;-51
2022/11/30 07:31:51;;;;;;;41.75;23.88;;;6.20;99.90;;;;;;5087888;28;20035;-50
2022/11/30 07:34:16;;;;;;;37.42;22.30;;;6.30;99.90;;;;;;5090353;28;20101;-52
2022/11/30 07:36:42;;;;;;;36.65;22.27;;;6.20;99.90;;;;;;5091084;28;20462;-50
2022/11/30 07:39:07;;;;;;;36.05;22.08;;;6.20;99.90;;;;;;5086395;28;20043;-54
2022/11/30 07:41:33;;;;;;;36.33;22.92;;;6.20;99.90;;;;;;5085833;28;20044;-54
2022/11/30 07:43:59;;;;;;;35.55;22.80;;;6.20;99.90;;;;;;5092254;28;20127;-50
2022/11/30 07:46:24;;;;;;;35.78;22.70;;;6.20;99.90;;;;;;5091434;28;20089;-50
2022/11/30 07:48:50;;;;;;;33.72;22.13;;;6.20;99.90;;;;;;5090398;28;20175;-50
2022/11/30 07:51:18;;;;;;;37.92;24.38;;;6.20;99.90;;;;;;5081227;28;20058;-50
2022/11/30 07:53:44;;;;;;;33.05;23.35;;;6.20;99.90;;;;;;5085427;28;20036;-50
2022/11/30 07:56:12;;;;;;;33.80;20.38;;;6.30;99.90;;;;;;5087122;28;20105;-50
2022/11/30 07:58:39;;;;;;;36.60;24.00;;;6.30;99.90;;;;;;5089590;28;20052;-49
2022/11/30 08:01:10;;;;;;;33.95;22.88;;;6.30;99.90;;;;;;5087959;28;20054;-50
2022/11/30 08:03:36;;;;;;;36.50;23.73;;;6.30;99.90;;;;;;5090934;28;20044;-53
2022/11/30 08:06:06;;;;;;;33.35;21.88;;;6.30;99.90;;;;;;5089619;28;20051;-52
2022/11/30 08:08:33;;;;;;;31.70;21.42;;;6.30;99.90;;;;;;5089327;28;20492;-54
2022/11/30 08:10:59;;;;;;;28.25;19.90;;;6.20;99.90;;;;;;5086814;28;20079;-51
2022/11/30 08:13:25;;;;;;;27.13;20.58;;;6.30;99.90;;;;;;5087543;28;20074;-51
2022/11/30 08:15:52;;;;;;;28.98;19.45;;;6.20;99.90;;;;;;5089033;28;20046;-54
2022/11/30 08:18:17;;;;;;;28.17;20.70;;;6.30;99.90;;;;;;5087179;28;20512;-51
2022/11/30 08:20:44;;;;;;;26.08;16.63;;;6.20;99.90;;;;;;5105662;28;20036;-51
2022/11/30 08:23:10;;;;;;;26.88;19.17;;;6.20;99.90;;;;;;5089340;28;20048;-50
2022/11/30 08:25:36;;;;;;;28.63;19.10;;;6.20;99.90;;;;;;5086443;28;20055;-51
2022/11/30 08:28:01;;;;;;;29.20;19.52;;;6.20;99.90;;;;;;5089425;28;20131;-50
2022/11/30 08:30:27;;;;;;;26.90;18.55;;;6.20;99.90;;;;;;5089603;28;20047;-51
2022/11/30 08:32:52;;;;;;;28.60;19.70;;;6.20;99.90;;;;;;5086838;28;20440;-51
2022/11/30 08:35:18;;;;;;;24.92;17.10;;;6.20;99.90;;;;;;5087668;28;20786;-49
2022/11/30 08:37:44;;;;;;;24.92;16.60;;;6.20;99.90;;;;;;5083628;28;20597;-50
2022/11/30 08:40:10;;;;;;;25.10;17.15;;;6.20;99.90;;;;;;5085025;28;20044;-53
2022/11/30 08:42:35;;;;;;;26.20;18.35;;;6.20;99.90;;;;;;5087852;28;20040;-53
2022/11/30 08:45:01;;;;;;;22.50;15.77;;;6.20;99.90;;;;;;5085026;28;20042;-50
2022/11/30 08:47:28;;;;;;;23.83;17.33;;;6.20;99.90;;;;;;5087744;28;20044;-50
2022/11/30 08:49:54;;;;;;;23.75;16.98;;;6.10;99.90;;;;;;5086322;28;20048;-50
2022/11/30 08:52:20;;;;;;;27.20;18.55;;;6.20;99.90;;;;;;5090570;28;20494;-51
2022/11/30 08:54:46;;;;;;;26.65;16.83;;;6.20;99.90;;;;;;5089377;28;20043;-49
2022/11/30 08:57:16;;;;;;;24.35;17.45;;;6.20;99.90;;;;;;5088388;28;20056;-50
2022/11/30 08:59:42;;;;;;;24.55;17.95;;;6.20;99.90;;;;;;5089680;28;20044;-52
2022/11/30 09:02:15;;;;;;;23.05;16.88;;;6.10;99.90;;;;;;5087802;28;20032;-49
2022/11/30 09:04:41;;;;;;;23.15;17.13;;;6.10;99.90;;;;;;5088859;28;20043;-49
2022/11/30 09:07:08;;;;;;;26.17;18.17;;;6.10;99.90;;;;;;5087590;28;20473;-53
2022/11/30 09:09:34;;;;;;;24.52;16.73;;;6.20;99.90;;;;;;5089711;28;20044;-49
2022/11/30 09:12:00;;;;;;;23.02;17.30;;;6.20;99.90;;;;;;5087901;28;20537;-50
2022/11/30 09:14:25;;;;;;;22.13;16.75;;;6.20;99.90;;;;;;5087147;28;20143;-54
2022/11/30 09:16:53;;;;;;;21.92;16.65;;;6.20;99.90;;;;;;5089205;28;20040;-50
2022/11/30 09:19:18;;;;;;;21.77;16.58;;;6.20;99.90;;;;;;5086439;28;20040;-49
2022/11/30 09:21:44;;;;;;;21.98;16.58;;;6.20;99.90;;;;;;5090427;28;20040;-51
2022/11/30 09:24:09;;;;;;;22.00;16.13;;;6.20;99.90;;;;;;5087918;28;20129;-51
2022/11/30 09:26:35;;;;;;;24.63;17.48;;;6.20;99.90;;;;;;5085201;28;20040;-51
2022/11/30 09:29:01;;;;;;;22.05;15.35;;;6.20;99.90;;;;;;5089349;28;20474;-49
2022/11/30 09:31:27;;;;;;;16.63;13.45;;;6.20;99.90;;;;;;5087459;28;20043;-52
2022/11/30 09:33:55;;;;;;;17.27;13.50;;;6.10;99.90;;;;;;5086241;28;20040;-50
2022/11/30 09:36:22;;;;;;;19.33;15.25;;;6.20;99.90;;;;;;5087355;28;20498;-50
2022/11/30 09:38:48;;;;;;;18.63;14.90;;;6.20;99.90;;;;;;5087003;28;20110;-51
2022/11/30 09:41:33;;;;;;;18.38;15.15;;;6.30;99.90;;;;;;5088559;28;20293;-49
2022/11/30 09:44:08;;;;;;;21.20;16.60;;;6.20;99.90;;;;;;5084668;28;20036;-51
2022/11/30 09:46:48;;;;;;;18.48;15.00;;;6.20;99.90;;;;;;5083492;28;20075;-53
2022/11/30 09:49:19;;;;;;;20.50;16.45;;;6.20;99.90;;;;;;5084252;28;20048;-49
2022/11/30 09:51:47;;;;;;;17.23;15.18;;;6.30;99.90;;;;;;5086741;28;20047;-52
2022/11/30 09:54:17;;;;;;;18.40;14.88;;;6.30;99.90;;;;;;5088085;28;20078;-51
2022/11/30 09:56:45;;;;;;;20.42;16.35;;;6.30;99.90;;;;;;5087100;28;20193;-50
2022/11/30 09:59:25;;;;;;;20.25;14.18;;;6.30;99.90;;;;;;5085659;28;20118;-49
2022/11/30 10:01:51;;;;;;;16.52;13.73;;;6.30;99.90;;;;;;5085856;28;20024;-52
2022/11/30 10:04:25;;;;;;;19.58;16.50;;;6.30;99.90;;;;;;5085982;28;20044;-51
2022/11/30 10:07:05;;;;;;;19.48;16.25;;;6.30;99.90;;;;;;5086188;28;20165;-49
2022/11/30 10:10:02;;;;;;;20.25;15.88;;;6.30;99.90;;;;;;5086553;28;20124;-49
2022/11/30 10:12:41;;;;;;;19.13;14.60;;;6.40;99.90;;;;;;5084534;28;20036;-55
2022/11/30 10:15:19;;;;;;;19.70;14.50;;;6.40;99.90;;;;;;5087244;28;20044;-50
2022/11/30 10:18:12;;;;;;;21.00;16.38;;;6.40;99.90;;;;;;5084943;28;20047;-55
2022/11/30 10:21:11;;;;;;;19.55;15.95;;;6.50;99.90;;;;;;5084249;28;20090;-53
2022/11/30 10:23:57;;;;;;;19.27;16.05;;;6.50;99.90;;;;;;5085917;28;20432;-50
2022/11/30 10:26:34;;;;;;;16.55;14.75;;;6.50;99.90;;;;;;5086986;28;20158;-54
2022/11/30 10:29:28;;;;;;;18.70;15.20;;;6.60;99.90;;;;;;5083143;28;20120;-51
2022/11/30 10:31:59;;;;;;;17.45;14.00;;;6.50;99.90;;;;;;5088249;28;20048;-50
2022/11/30 10:34:35;;;;;;;16.50;12.65;;;6.40;99.90;;;;;;5080320;28;20064;-52
2022/11/30 10:37:13;;;;;;;17.13;13.75;;;6.40;99.90;;;;;;5084150;28;20431;-50
2022/11/30 10:39:48;;;;;;;17.23;14.02;;;6.40;99.90;;;;;;5083963;28;20472;-51
2022/11/30 10:42:25;;;;;;;17.45;11.90;;;6.50;99.90;;;;;;5090942;28;20043;-53
2022/11/30 10:45:09;;;;;;;17.77;14.52;;;6.40;99.90;;;;;;5089148;28;20081;-54
2022/11/30 10:47:36;;;;;;;17.50;14.25;;;6.40;99.90;;;;;;5088083;28;20054;-54
2022/11/30 10:50:06;;;;;;;18.95;13.10;;;6.40;99.90;;;;;;5088603;28;20051;-52
2022/11/30 10:52:43;;;;;;;19.05;14.85;;;6.40;99.90;;;;;;5089065;28;20043;-54
2022/11/30 10:55:17;;;;;;;18.23;14.27;;;6.40;99.90;;;;;;5089090;28;20120;-53
2022/11/30 10:57:45;;;;;;;17.42;13.98;;;6.40;99.90;;;;;;5089006;28;20130;-54
2022/11/30 11:00:17;;;;;;;18.13;14.27;;;6.30;99.90;;;;;;5087726;28;20556;-50
2022/11/30 11:02:50;;;;;;;17.70;14.40;;;6.40;99.90;;;;;;5085145;28;20036;-49
2022/11/30 11:05:30;;;;;;;18.95;15.20;;;6.30;99.90;;;;;;5088783;28;20116;-53
2022/11/30 11:08:02;;;;;;;17.48;14.48;;;6.40;99.90;;;;;;5088458;28;20032;-54
2022/11/30 11:10:35;;;;;;;17.95;14.40;;;6.40;99.90;;;;;;5085679;28;20067;-50
2022/11/30 11:13:02;;;;;;;18.67;16.10;;;6.40;99.90;;;;;;5089037;28;20040;-49
2022/11/30 11:15:31;;;;;;;17.17;14.90;;;6.40;99.90;;;;;;5090784;28;20535;-50
2022/11/30 11:18:14;;;;;;;18.60;15.75;;;6.40;99.90;;;;;;5089491;28;20426;-50
2022/11/30 11:20:42;;;;;;;12.90;10.15;;;6.40;99.90;;;;;;5084833;28;20616;-54
2022/11/30 11:23:26;;;;;;;15.35;13.70;;;6.30;99.90;;;;;;5088932;28;20043;-53
2022/11/30 11:25:52;;;;;;;16.20;14.50;;;6.30;99.90;;;;;;5090368;28;20047;-53
2022/11/30 11:28:20;;;;;;;17.10;13.73;;;6.30;99.90;;;;;;5091129;28;20077;-51
2022/11/30 11:30:46;;;;;;;15.45;13.85;;;6.30;99.90;;;;;;5088834;28;20044;-53
2022/11/30 11:33:12;;;;;;;16.65;13.98;;;6.30;99.90;;;;;;5086409;28;20052;-51
2022/11/30 11:35:40;;;;;;;16.88;14.80;;;6.30;99.90;;;;;;5089323;28;20363;-50
2022/11/30 11:38:26;;;;;;;18.88;15.30;;;6.30;99.90;;;;;;5090439;28;20153;-51
2022/11/30 11:41:03;;;;;;;16.40;14.65;;;6.40;99.90;;;;;;5089025;28;20592;-51
2022/11/30 11:43:31;;;;;;;19.85;16.50;;;6.30;99.90;;;;;;5086690;28;20079;-52
2022/11/30 11:46:09;;;;;;;19.83;16.13;;;6.30;99.90;;;;;;5087169;28;20044;-51
2022/11/30 11:48:40;;;;;;;21.05;16.70;;;6.30;99.90;;;;;;5084730;28;20040;-52
2022/11/30 11:51:08;;;;;;;23.20;16.20;;;6.30;99.90;;;;;;5090085;28;20089;-54
2022/11/30 11:53:38;;;;;;;;;;;6.30;99.90;;;;;;5091670;28;20040;-51
2022/11/30 11:56:36;;;;;;;20.45;15.98;;;6.30;99.90;;;;;;5090363;28;19946;-51
2022/11/30 11:59:39;;;;;;;19.83;16.02;;;6.40;99.90;;;;;;5077982;28;20052;-53
2022/11/30 12:02:22;;;;;;;19.20;15.80;;;6.40;99.90;;;;;;5076288;28;20075;-50
2022/11/30 12:05:06;;;;;;;19.33;16.52;;;6.40;99.90;;;;;;5075570;28;20044;-51
2022/11/30 12:07:41;;;;;;;15.90;13.48;;;6.40;99.90;;;;;;5083645;28;20428;-50
2022/11/30 12:10:27;;;;;;;20.33;16.13;;;6.40;99.90;;;;;;5090830;28;20039;-50
2022/11/30 12:12:54;;;;;;;21.20;17.40;;;6.40;99.90;;;;;;5077014;28;20040;-50
2022/11/30 12:15:35;;;;;;;20.98;16.55;;;6.50;99.90;;;;;;5081742;28;20050;-52
2022/11/30 12:18:20;;;;;;;21.00;17.13;;;6.50;99.90;;;;;;5074995;28;20044;-50
2022/11/30 12:20:49;;;;;;;19.50;15.70;;;6.50;99.90;;;;;;5080654;28;20048;-50
2022/11/30 12:23:17;;;;;;;20.60;15.13;;;6.50;99.90;;;;;;5081645;28;20133;-54
2022/11/30 12:26:20;;;;;;;21.67;16.17;;;6.50;99.90;;;;;;5078434;28;20546;-49
2022/11/30 12:29:14;;;;;;;26.70;19.10;;;6.50;99.90;;;;;;5057445;28;20048;-50
2022/11/30 12:32:00;;;;;;;27.50;20.33;;;6.50;99.90;;;;;;5061381;28;20751;-52
2022/11/30 12:34:46;;;;;;;24.40;19.38;;;6.50;99.90;;;;;;5089977;28;20039;-51
2022/11/30 12:37:46;;;;;;;30.20;21.05;;;6.40;99.90;;;;;;5081410;28;20048;-52
2022/11/30 12:40:22;;;;;;;27.05;20.50;;;6.40;99.90;;;;;;5087206;28;20502;-52
2022/11/30 12:43:22;;;;;;;30.17;20.02;;;6.50;99.90;;;;;;5086251;28;20055;-51
2022/11/30 12:45:49;;;;;;;29.60;21.73;;;6.40;99.90;;;;;;5081580;28;20137;-52
2022/11/30 12:48:33;;;;;;;30.53;21.23;;;6.50;99.90;;;;;;5084618;28;20525;-50
2022/11/30 12:51:15;;;;;;;34.47;23.35;;;6.40;99.90;;;;;;5086289;28;20054;-51
2022/11/30 12:53:54;;;;;;;34.33;21.98;;;6.40;99.90;;;;;;5079163;28;20032;-50